21:44
Airports
Links
Donate
Help keep this website running!
PayPal
Bitcoin
METAR
KVJI 162135Z AUTO 07003KT 10SM SCT080 OVC100 26/22 A3010 RMK AO2 T02620223
Current Weather Conditions at KVJI
VFR 21:35:00 16-08-17
Automated station, no observer
Altimeter:30.10 hg
Temp:26.2°c 79°f
Dew point:22.3°c 72°f
Wind:3 knots, 3.5 mph, 2 m/s, from 70°
Visibility:10.0 statute miles
10000(OVC) Overcast
8000(SCT) Scattered
Past METAR reports
VFR 21:15:00 16-08-17
Automated station, no observer
Altimeter:30.10 hg
Temp:26.2°c 79°f
Dew point:22.6°c 72°f
Wind:3 knots, 3.5 mph, 2 m/s, from 100°
Visibility:10.0 statute miles
10000(OVC) Overcast
7000(SCT) Scattered
6000(SCT) Scattered
KVJI 162115Z AUTO 10003KT 10SM SCT060 SCT070 OVC100 26/23 A3010 RMK AO2 T02620226
VFR 20:55:00 16-08-17
Automated station, no observer
Altimeter:30.10 hg
Temp:26.1°c 79°f
Dew point:22.6°c 72°f
Wind:0 knots, 0 mph, 0 m/s,
Variable direction
Visibility:10.0 statute miles
9000(OVC) Overcast
7500(BKN) Broken
3100(SCT) Scattered
KVJI 162055Z AUTO 00000KT 10SM -RA SCT031 BKN075 OVC090 26/23 A3010 RMK AO2 T02610226
VFR 20:35:00 16-08-17
Automated station, no observer
Altimeter:30.10 hg
Temp:26.2°c 79°f
Dew point:22.6°c 72°f
Wind:0 knots, 0 mph, 0 m/s,
Variable direction
Visibility:10.0 statute miles
7500(BKN) Broken
4000(SCT) Scattered
3000(SCT) Scattered
KVJI 162035Z AUTO 00000KT 10SM SCT030 SCT040 BKN075 26/23 A3010 RMK AO2 T02620226
VFR 20:15:00 16-08-17
Automated station, no observer
Altimeter:30.11 hg
Temp:26.0°c 79°f
Dew point:22.8°c 72°f
Wind:0 knots, 0 mph, 0 m/s,
Variable direction
Visibility:10.0 statute miles
10000(OVC) Overcast
4000(BKN) Broken
2900(SCT) Scattered
KVJI 162015Z AUTO 00000KT 10SM SCT029 BKN040 OVC100 26/23 A3011 RMK AO2 T02600228
VFR 19:55:00 16-08-17
Automated station, no observer
Altimeter:30.11 hg
Temp:25.5°c 77°f
Dew point:23.1°c 73°f
Wind:4 knots, 4.6 mph, 2 m/s, from 90°
Visibility:10.0 statute miles
10000(OVC) Overcast
4600(BKN) Broken
3200(SCT) Scattered
KVJI 161955Z AUTO 09004KT 10SM -DZ SCT032 BKN046 OVC100 26/23 A3011 RMK AO2 T02550231
VFR 19:35:00 16-08-17
Automated station, no observer
Altimeter:30.11 hg
Temp:26.5°c 79°f
Dew point:22.6°c 72°f
Wind:4 knots, 4.6 mph, 2 m/s, from 60°
Visibility:10.0 statute miles
3200(OVC) Overcast
KVJI 161935Z AUTO 06004KT 10SM OVC032 27/23 A3011 RMK AO2 T02650226
TAF
No TAF for KVJI
Forecast at KVJI
No Forecast Reports for KVJI